sensor_id;sensor_type;location;lat;lon;timestamp;temperature;humidity
45435;DHT22;31183;47.404;8.500;2024-01-30T00:02:24;3.70;99.90
45435;DHT22;31183;47.404;8.500;2024-01-30T00:04:52;3.60;99.90
45435;DHT22;31183;47.404;8.500;2024-01-30T00:07:18;3.60;99.90
45435;DHT22;31183;47.404;8.500;2024-01-30T00:09:47;3.50;99.90
45435;DHT22;31183;47.404;8.500;2024-01-30T00:12:14;3.60;99.90
45435;DHT22;31183;47.404;8.500;2024-01-30T00:14:42;3.60;99.90
45435;DHT22;31183;47.404;8.500;2024-01-30T00:17:10;3.60;99.90
45435;DHT22;31183;47.404;8.500;2024-01-30T00:19:36;3.60;99.90
45435;DHT22;31183;47.404;8.500;2024-01-30T00:22:03;3.70;99.90
45435;DHT22;31183;47.404;8.500;2024-01-30T00:24:30;3.70;99.90
45435;DHT22;31183;47.404;8.500;2024-01-30T00:26:56;3.70;99.90
45435;DHT22;31183;47.404;8.500;2024-01-30T00:29:24;3.70;99.90
45435;DHT22;31183;47.404;8.500;2024-01-30T00:31:52;3.70;99.90
45435;DHT22;31183;47.404;8.500;2024-01-30T00:34:19;3.80;99.90
45435;DHT22;31183;47.404;8.500;2024-01-30T00:36:45;3.80;99.90
45435;DHT22;31183;47.404;8.500;2024-01-30T00:39:12;3.70;99.90
45435;DHT22;31183;47.404;8.500;2024-01-30T00:41:39;3.70;99.90
45435;DHT22;31183;47.404;8.500;2024-01-30T00:44:05;3.70;99.90
45435;DHT22;31183;47.404;8.500;2024-01-30T00:46:32;3.70;99.90
45435;DHT22;31183;47.404;8.500;2024-01-30T00:48:58;3.70;99.90
45435;DHT22;31183;47.404;8.500;2024-01-30T00:51:25;3.70;99.90
45435;DHT22;31183;47.404;8.500;2024-01-30T00:53:52;3.60;99.90
45435;DHT22;31183;47.404;8.500;2024-01-30T00:56:19;3.70;99.90
45435;DHT22;31183;47.404;8.500;2024-01-30T00:58:45;3.70;99.90
45435;DHT22;31183;47.404;8.500;2024-01-30T01:01:12;3.70;99.90
45435;DHT22;31183;47.404;8.500;2024-01-30T01:03:39;3.70;99.90
45435;DHT22;31183;47.404;8.500;2024-01-30T01:06:07;3.70;99.90
45435;DHT22;31183;47.404;8.500;2024-01-30T01:08:34;3.60;99.90
45435;DHT22;31183;47.404;8.500;2024-01-30T01:11:01;3.60;99.90
45435;DHT22;31183;47.404;8.500;2024-01-30T01:13:27;3.60;99.90
45435;DHT22;31183;47.404;8.500;2024-01-30T01:15:54;3.60;99.90
45435;DHT22;31183;47.404;8.500;2024-01-30T01:18:21;3.70;99.90
45435;DHT22;31183;47.404;8.500;2024-01-30T01:20:48;3.70;99.90
45435;DHT22;31183;47.404;8.500;2024-01-30T01:23:14;3.70;99.90
45435;DHT22;31183;47.404;8.500;2024-01-30T01:25:41;3.70;99.90
45435;DHT22;31183;47.404;8.500;2024-01-30T01:28:08;3.70;99.90
45435;DHT22;31183;47.404;8.500;2024-01-30T01:30:34;3.80;99.90
45435;DHT22;31183;47.404;8.500;2024-01-30T01:33:02;3.80;99.90
45435;DHT22;31183;47.404;8.500;2024-01-30T01:35:29;3.80;99.90
45435;DHT22;31183;47.404;8.500;2024-01-30T01:37:55;3.70;99.90
45435;DHT22;31183;47.404;8.500;2024-01-30T01:40:23;3.70;99.90
45435;DHT22;31183;47.404;8.500;2024-01-30T01:42:51;3.70;99.90
45435;DHT22;31183;47.404;8.500;2024-01-30T01:45:21;3.70;99.90
45435;DHT22;31183;47.404;8.500;2024-01-30T01:47:50;3.70;99.90
45435;DHT22;31183;47.404;8.500;2024-01-30T01:50:18;3.70;99.90
45435;DHT22;31183;47.404;8.500;2024-01-30T01:52:47;3.70;99.90
45435;DHT22;31183;47.404;8.500;2024-01-30T01:55:19;3.80;99.90
45435;DHT22;31183;47.404;8.500;2024-01-30T01:57:52;3.90;99.90
45435;DHT22;31183;47.404;8.500;2024-01-30T02:00:20;3.90;99.90
45435;DHT22;31183;47.404;8.500;2024-01-30T02:02:47;3.90;99.90
45435;DHT22;31183;47.404;8.500;2024-01-30T02:05:15;3.90;99.90
45435;DHT22;31183;47.404;8.500;2024-01-30T02:07:43;3.90;99.90
45435;DHT22;31183;47.404;8.500;2024-01-30T02:10:10;3.90;99.90
45435;DHT22;31183;47.404;8.500;2024-01-30T02:12:37;3.80;99.90
45435;DHT22;31183;47.404;8.500;2024-01-30T02:15:04;3.70;99.90
45435;DHT22;31183;47.404;8.500;2024-01-30T02:17:31;3.70;99.90
45435;DHT22;31183;47.404;8.500;2024-01-30T02:19:58;3.70;99.90
45435;DHT22;31183;47.404;8.500;2024-01-30T02:22:25;3.60;99.90
45435;DHT22;31183;47.404;8.500;2024-01-30T02:24:52;3.60;99.90
45435;DHT22;31183;47.404;8.500;2024-01-30T02:27:19;3.50;99.90
45435;DHT22;31183;47.404;8.500;2024-01-30T02:29:46;3.60;99.90
45435;DHT22;31183;47.404;8.500;2024-01-30T02:32:12;3.50;99.90
45435;DHT22;31183;47.404;8.500;2024-01-30T02:34:39;3.50;99.90
45435;DHT22;31183;47.404;8.500;2024-01-30T02:37:06;3.50;99.90
45435;DHT22;31183;47.404;8.500;2024-01-30T02:39:33;3.50;99.90
45435;DHT22;31183;47.404;8.500;2024-01-30T02:41:59;3.40;99.90
45435;DHT22;31183;47.404;8.500;2024-01-30T02:44:26;3.40;99.90
45435;DHT22;31183;47.404;8.500;2024-01-30T02:46:53;3.40;99.90
45435;DHT22;31183;47.404;8.500;2024-01-30T02:49:20;3.40;99.90
45435;DHT22;31183;47.404;8.500;2024-01-30T02:51:48;3.40;99.90
45435;DHT22;31183;47.404;8.500;2024-01-30T02:54:15;3.30;99.90
45435;DHT22;31183;47.404;8.500;2024-01-30T02:56:42;3.40;99.90
45435;DHT22;31183;47.404;8.500;2024-01-30T02:59:08;3.40;99.90
45435;DHT22;31183;47.404;8.500;2024-01-30T03:01:45;3.30;99.90
45435;DHT22;31183;47.404;8.500;2024-01-30T03:04:13;3.30;99.90
45435;DHT22;31183;47.404;8.500;2024-01-30T03:06:45;3.30;99.90
45435;DHT22;31183;47.404;8.500;2024-01-30T03:09:12;3.30;99.90
45435;DHT22;31183;47.404;8.500;2024-01-30T03:11:40;3.30;99.90
45435;DHT22;31183;47.404;8.500;2024-01-30T03:14:06;3.30;99.90
45435;DHT22;31183;47.404;8.500;2024-01-30T03:16:34;3.30;99.90
45435;DHT22;31183;47.404;8.500;2024-01-30T03:19:01;3.30;99.90
45435;DHT22;31183;47.404;8.500;2024-01-30T03:21:29;3.40;99.90
45435;DHT22;31183;47.404;8.500;2024-01-30T03:23:55;3.40;99.90
45435;DHT22;31183;47.404;8.500;2024-01-30T03:26:22;3.30;99.90
45435;DHT22;31183;47.404;8.500;2024-01-30T03:28:48;3.40;99.90
45435;DHT22;31183;47.404;8.500;2024-01-30T03:31:16;3.40;99.90
45435;DHT22;31183;47.404;8.500;2024-01-30T03:33:42;3.30;99.90
45435;DHT22;31183;47.404;8.500;2024-01-30T03:36:10;3.30;99.90
45435;DHT22;31183;47.404;8.500;2024-01-30T03:38:37;3.40;99.90
45435;DHT22;31183;47.404;8.500;2024-01-30T03:41:08;3.50;99.90
45435;DHT22;31183;47.404;8.500;2024-01-30T03:43:36;3.50;99.90
45435;DHT22;31183;47.404;8.500;2024-01-30T03:46:03;3.60;99.90
45435;DHT22;31183;47.404;8.500;2024-01-30T03:48:30;3.70;99.90
45435;DHT22;31183;47.404;8.500;2024-01-30T03:50:57;3.60;99.90
45435;DHT22;31183;47.404;8.500;2024-01-30T03:53:23;3.50;99.90
45435;DHT22;31183;47.404;8.500;2024-01-30T03:55:50;3.50;99.90
45435;DHT22;31183;47.404;8.500;2024-01-30T03:58:17;3.40;99.90
45435;DHT22;31183;47.404;8.500;2024-01-30T04:00:43;3.40;99.90
45435;DHT22;31183;47.404;8.500;2024-01-30T04:03:11;3.30;99.90
45435;DHT22;31183;47.404;8.500;2024-01-30T04:05:38;3.30;99.90
45435;DHT22;31183;47.404;8.500;2024-01-30T04:08:04;3.20;99.90
45435;DHT22;31183;47.404;8.500;2024-01-30T04:10:31;3.20;99.90
45435;DHT22;31183;47.404;8.500;2024-01-30T04:12:58;3.10;99.90
45435;DHT22;31183;47.404;8.500;2024-01-30T04:15:25;3.10;99.90
45435;DHT22;31183;47.404;8.500;2024-01-30T04:17:51;3.00;99.90
45435;DHT22;31183;47.404;8.500;2024-01-30T04:20:18;3.00;99.90
45435;DHT22;31183;47.404;8.500;2024-01-30T04:22:45;2.90;99.90
45435;DHT22;31183;47.404;8.500;2024-01-30T04:25:13;2.90;99.90
45435;DHT22;31183;47.404;8.500;2024-01-30T04:27:40;2.80;99.90
45435;DHT22;31183;47.404;8.500;2024-01-30T04:30:07;2.90;99.90
45435;DHT22;31183;47.404;8.500;2024-01-30T04:32:34;2.80;99.90
45435;DHT22;31183;47.404;8.500;2024-01-30T04:35:01;2.90;99.90
45435;DHT22;31183;47.404;8.500;2024-01-30T04:37:31;2.90;99.90
45435;DHT22;31183;47.404;8.500;2024-01-30T04:39:58;2.80;99.90
45435;DHT22;31183;47.404;8.500;2024-01-30T04:42:25;2.80;99.90
45435;DHT22;31183;47.404;8.500;2024-01-30T04:44:51;2.80;99.90
45435;DHT22;31183;47.404;8.500;2024-01-30T04:47:18;2.70;99.90
45435;DHT22;31183;47.404;8.500;2024-01-30T04:49:45;2.60;99.90
45435;DHT22;31183;47.404;8.500;2024-01-30T04:52:11;2.50;99.90
45435;DHT22;31183;47.404;8.500;2024-01-30T04:54:38;2.50;99.90
45435;DHT22;31183;47.404;8.500;2024-01-30T04:57:05;2.50;99.90
45435;DHT22;31183;47.404;8.500;2024-01-30T04:59:35;2.40;99.90
45435;DHT22;31183;47.404;8.500;2024-01-30T05:02:03;2.40;99.90
45435;DHT22;31183;47.404;8.500;2024-01-30T05:04:29;2.40;99.90
45435;DHT22;31183;47.404;8.500;2024-01-30T05:06:56;2.40;99.90
45435;DHT22;31183;47.404;8.500;2024-01-30T05:09:23;2.40;99.90
45435;DHT22;31183;47.404;8.500;2024-01-30T05:11:50;2.30;99.90
45435;DHT22;31183;47.404;8.500;2024-01-30T05:14:16;2.30;99.90
45435;DHT22;31183;47.404;8.500;2024-01-30T05:16:44;2.30;99.90
45435;DHT22;31183;47.404;8.500;2024-01-30T05:19:14;2.20;99.90
45435;DHT22;31183;47.404;8.500;2024-01-30T05:21:41;2.30;99.90
45435;DHT22;31183;47.404;8.500;2024-01-30T05:24:08;2.20;99.90
45435;DHT22;31183;47.404;8.500;2024-01-30T05:26:36;2.20;99.90
45435;DHT22;31183;47.404;8.500;2024-01-30T05:29:03;2.20;99.90
45435;DHT22;31183;47.404;8.500;2024-01-30T05:31:30;2.20;99.90
45435;DHT22;31183;47.404;8.500;2024-01-30T05:33:57;2.20;99.90
45435;DHT22;31183;47.404;8.500;2024-01-30T05:36:24;2.20;99.90
45435;DHT22;31183;47.404;8.500;2024-01-30T05:38:50;2.20;99.90
45435;DHT22;31183;47.404;8.500;2024-01-30T05:41:17;2.20;99.90
45435;DHT22;31183;47.404;8.500;2024-01-30T05:43:44;2.20;99.90
45435;DHT22;31183;47.404;8.500;2024-01-30T05:46:11;2.10;99.90
45435;DHT22;31183;47.404;8.500;2024-01-30T05:48:37;2.10;99.90
45435;DHT22;31183;47.404;8.500;2024-01-30T05:51:04;2.10;99.90
45435;DHT22;31183;47.404;8.500;2024-01-30T05:53:31;2.10;99.90
45435;DHT22;31183;47.404;8.500;2024-01-30T05:55:59;2.10;99.90
45435;DHT22;31183;47.404;8.500;2024-01-30T05:58:25;2.20;99.90
45435;DHT22;31183;47.404;8.500;2024-01-30T06:00:52;2.20;99.90
45435;DHT22;31183;47.404;8.500;2024-01-30T06:03:19;2.30;99.90
45435;DHT22;31183;47.404;8.500;2024-01-30T06:05:45;2.40;99.90
45435;DHT22;31183;47.404;8.500;2024-01-30T06:08:12;2.40;99.90
45435;DHT22;31183;47.404;8.500;2024-01-30T06:10:39;2.40;99.90
45435;DHT22;31183;47.404;8.500;2024-01-30T06:13:06;2.40;99.90
45435;DHT22;31183;47.404;8.500;2024-01-30T06:15:32;2.50;99.90
45435;DHT22;31183;47.404;8.500;2024-01-30T06:17:59;2.60;99.90
45435;DHT22;31183;47.404;8.500;2024-01-30T06:20:26;2.60;99.90
45435;DHT22;31183;47.404;8.500;2024-01-30T06:22:53;2.50;99.90
45435;DHT22;31183;47.404;8.500;2024-01-30T06:25:19;2.50;99.90
45435;DHT22;31183;47.404;8.500;2024-01-30T06:27:46;2.50;99.90
45435;DHT22;31183;47.404;8.500;2024-01-30T06:30:13;2.50;99.90
45435;DHT22;31183;47.404;8.500;2024-01-30T06:32:40;2.60;99.90
45435;DHT22;31183;47.404;8.500;2024-01-30T06:35:06;2.60;99.90
45435;DHT22;31183;47.404;8.500;2024-01-30T06:37:33;2.50;99.90
45435;DHT22;31183;47.404;8.500;2024-01-30T06:40:00;2.50;99.90
45435;DHT22;31183;47.404;8.500;2024-01-30T06:42:27;2.60;99.90
45435;DHT22;31183;47.404;8.500;2024-01-30T06:44:53;2.60;99.90
45435;DHT22;31183;47.404;8.500;2024-01-30T06:47:20;2.60;99.90
45435;DHT22;31183;47.404;8.500;2024-01-30T06:49:47;2.70;99.90
45435;DHT22;31183;47.404;8.500;2024-01-30T06:52:13;2.70;99.90
45435;DHT22;31183;47.404;8.500;2024-01-30T06:54:40;2.70;99.90
45435;DHT22;31183;47.404;8.500;2024-01-30T06:57:07;2.70;99.90
45435;DHT22;31183;47.404;8.500;2024-01-30T06:59:38;2.70;99.90
45435;DHT22;31183;47.404;8.500;2024-01-30T07:02:10;2.70;99.90
45435;DHT22;31183;47.404;8.500;2024-01-30T07:04:37;2.80;99.90
45435;DHT22;31183;47.404;8.500;2024-01-30T07:07:06;2.80;99.90
45435;DHT22;31183;47.404;8.500;2024-01-30T07:09:39;2.80;99.90
45435;DHT22;31183;47.404;8.500;2024-01-30T07:12:06;2.70;99.90
45435;DHT22;31183;47.404;8.500;2024-01-30T07:14:33;2.80;99.90
45435;DHT22;31183;47.404;8.500;2024-01-30T07:17:00;2.80;99.90
45435;DHT22;31183;47.404;8.500;2024-01-30T07:19:26;2.80;99.90
45435;DHT22;31183;47.404;8.500;2024-01-30T07:21:53;2.90;99.90
45435;DHT22;31183;47.404;8.500;2024-01-30T07:24:20;3.00;99.90
45435;DHT22;31183;47.404;8.500;2024-01-30T07:26:46;2.90;99.90
45435;DHT22;31183;47.404;8.500;2024-01-30T07:29:13;2.90;99.90
45435;DHT22;31183;47.404;8.500;2024-01-30T07:31:39;2.90;99.90
45435;DHT22;31183;47.404;8.500;2024-01-30T07:34:07;3.00;99.90
45435;DHT22;31183;47.404;8.500;2024-01-30T07:36:34;3.10;99.90
45435;DHT22;31183;47.404;8.500;2024-01-30T07:39:00;3.30;99.90
45435;DHT22;31183;47.404;8.500;2024-01-30T07:41:27;3.40;99.90
45435;DHT22;31183;47.404;8.500;2024-01-30T07:43:53;3.40;99.90
45435;DHT22;31183;47.404;8.500;2024-01-30T07:46:20;3.50;99.90
45435;DHT22;31183;47.404;8.500;2024-01-30T07:48:47;3.50;99.90
45435;DHT22;31183;47.404;8.500;2024-01-30T07:51:15;3.50;99.90
45435;DHT22;31183;47.404;8.500;2024-01-30T07:53:42;3.60;99.90
45435;DHT22;31183;47.404;8.500;2024-01-30T07:56:09;3.60;99.90
45435;DHT22;31183;47.404;8.500;2024-01-30T07:58:37;3.70;99.90
45435;DHT22;31183;47.404;8.500;2024-01-30T08:01:03;3.70;99.90
45435;DHT22;31183;47.404;8.500;2024-01-30T08:03:30;3.80;99.90
45435;DHT22;31183;47.404;8.500;2024-01-30T08:05:57;3.90;99.90
45435;DHT22;31183;47.404;8.500;2024-01-30T08:08:24;4.00;99.90
45435;DHT22;31183;47.404;8.500;2024-01-30T08:10:51;4.20;99.90
45435;DHT22;31183;47.404;8.500;2024-01-30T08:13:18;4.40;99.90
45435;DHT22;31183;47.404;8.500;2024-01-30T08:15:45;4.70;99.90
45435;DHT22;31183;47.404;8.500;2024-01-30T08:18:11;4.90;99.90
45435;DHT22;31183;47.404;8.500;2024-01-30T08:20:38;5.20;99.90
45435;DHT22;31183;47.404;8.500;2024-01-30T08:23:05;5.60;99.90
45435;DHT22;31183;47.404;8.500;2024-01-30T08:25:31;5.90;99.90
45435;DHT22;31183;47.404;8.500;2024-01-30T08:27:58;6.00;99.90
45435;DHT22;31183;47.404;8.500;2024-01-30T08:30:25;6.30;99.90
45435;DHT22;31183;47.404;8.500;2024-01-30T08:32:51;6.80;99.90
45435;DHT22;31183;47.404;8.500;2024-01-30T08:35:18;7.60;99.90
45435;DHT22;31183;47.404;8.500;2024-01-30T08:37:45;8.30;99.90
45435;DHT22;31183;47.404;8.500;2024-01-30T08:40:12;9.00;99.90
45435;DHT22;31183;47.404;8.500;2024-01-30T08:42:39;9.80;99.90
45435;DHT22;31183;47.404;8.500;2024-01-30T08:45:06;10.40;99.90
45435;DHT22;31183;47.404;8.500;2024-01-30T08:47:33;10.70;99.70
45435;DHT22;31183;47.404;8.500;2024-01-30T08:50:00;11.10;97.80
45435;DHT22;31183;47.404;8.500;2024-01-30T08:52:27;11.30;96.50
45435;DHT22;31183;47.404;8.500;2024-01-30T08:54:54;11.40;96.40
45435;DHT22;31183;47.404;8.500;2024-01-30T08:57:21;11.60;94.80
45435;DHT22;31183;47.404;8.500;2024-01-30T08:59:47;11.90;93.50
45435;DHT22;31183;47.404;8.500;2024-01-30T09:02:14;12.00;92.60
45435;DHT22;31183;47.404;8.500;2024-01-30T09:04:43;11.80;92.50
45435;DHT22;31183;47.404;8.500;2024-01-30T09:07:09;11.70;92.40
45435;DHT22;31183;47.404;8.500;2024-01-30T09:09:41;11.60;92.40
45435;DHT22;31183;47.404;8.500;2024-01-30T09:12:08;11.80;91.80
45435;DHT22;31183;47.404;8.500;2024-01-30T09:14:38;11.90;91.60
45435;DHT22;31183;47.404;8.500;2024-01-30T09:17:05;12.00;91.50
45435;DHT22;31183;47.404;8.500;2024-01-30T09:19:32;12.10;91.20
45435;DHT22;31183;47.404;8.500;2024-01-30T09:21:59;12.40;90.50
45435;DHT22;31183;47.404;8.500;2024-01-30T09:24:26;13.00;88.20
45435;DHT22;31183;47.404;8.500;2024-01-30T09:26:53;13.70;85.00
45435;DHT22;31183;47.404;8.500;2024-01-30T09:29:20;14.40;84.00
45435;DHT22;31183;47.404;8.500;2024-01-30T09:31:47;15.40;78.30
45435;DHT22;31183;47.404;8.500;2024-01-30T09:34:14;16.10;75.40
45435;DHT22;31183;47.404;8.500;2024-01-30T09:36:41;16.80;72.20
45435;DHT22;31183;47.404;8.500;2024-01-30T09:39:07;17.40;69.10
45435;DHT22;31183;47.404;8.500;2024-01-30T09:41:53;17.50;67.60
45435;DHT22;31183;47.404;8.500;2024-01-30T09:44:23;18.20;65.10
45435;DHT22;31183;47.404;8.500;2024-01-30T09:46:52;19.30;62.40
45435;DHT22;31183;47.404;8.500;2024-01-30T09:49:20;19.90;60.00
45435;DHT22;31183;47.404;8.500;2024-01-30T09:51:48;20.50;57.60
45435;DHT22;31183;47.404;8.500;2024-01-30T09:54:15;21.00;56.50
45435;DHT22;31183;47.404;8.500;2024-01-30T09:56:42;21.50;55.70
45435;DHT22;31183;47.404;8.500;2024-01-30T09:59:09;21.80;53.90
45435;DHT22;31183;47.404;8.500;2024-01-30T10:01:36;21.90;53.70
45435;DHT22;31183;47.404;8.500;2024-01-30T10:04:04;21.60;53.20
45435;DHT22;31183;47.404;8.500;2024-01-30T10:06:31;21.10;53.80
45435;DHT22;31183;47.404;8.500;2024-01-30T10:08:58;20.40;54.60
45435;DHT22;31183;47.404;8.500;2024-01-30T10:11:24;20.00;55.00
45435;DHT22;31183;47.404;8.500;2024-01-30T10:13:51;19.60;55.80
45435;DHT22;31183;47.404;8.500;2024-01-30T10:16:18;19.90;54.80
45435;DHT22;31183;47.404;8.500;2024-01-30T10:18:45;20.60;54.00
45435;DHT22;31183;47.404;8.500;2024-01-30T10:21:12;21.30;51.40
45435;DHT22;31183;47.404;8.500;2024-01-30T10:23:39;21.60;50.40
45435;DHT22;31183;47.404;8.500;2024-01-30T10:26:07;21.40;51.30
45435;DHT22;31183;47.404;8.500;2024-01-30T10:28:34;21.10;52.10
45435;DHT22;31183;47.404;8.500;2024-01-30T10:31:01;21.30;51.80
45435;DHT22;31183;47.404;8.500;2024-01-30T10:33:32;21.00;50.80
45435;DHT22;31183;47.404;8.500;2024-01-30T10:36:04;21.00;51.60
45435;DHT22;31183;47.404;8.500;2024-01-30T10:38:32;21.70;50.00
45435;DHT22;31183;47.404;8.500;2024-01-30T10:41:02;22.40;49.20
45435;DHT22;31183;47.404;8.500;2024-01-30T10:43:35;23.10;47.90
45435;DHT22;31183;47.404;8.500;2024-01-30T10:46:19;23.90;46.80
45435;DHT22;31183;47.404;8.500;2024-01-30T10:48:57;24.60;44.80
45435;DHT22;31183;47.404;8.500;2024-01-30T10:51:29;24.80;43.50
45435;DHT22;31183;47.404;8.500;2024-01-30T10:53:56;24.30;45.20
45435;DHT22;31183;47.404;8.500;2024-01-30T10:56:25;23.40;45.90
45435;DHT22;31183;47.404;8.500;2024-01-30T10:58:52;21.50;47.70
45435;DHT22;31183;47.404;8.500;2024-01-30T11:01:21;19.60;51.10
45435;DHT22;31183;47.404;8.500;2024-01-30T11:03:54;18.30;53.60
45435;DHT22;31183;47.404;8.500;2024-01-30T11:06:25;17.50;55.30
45435;DHT22;31183;47.404;8.500;2024-01-30T11:09:05;18.10;54.90
45435;DHT22;31183;47.404;8.500;2024-01-30T11:11:57;18.50;53.50
45435;DHT22;31183;47.404;8.500;2024-01-30T11:14:29;19.10;53.40
45435;DHT22;31183;47.404;8.500;2024-01-30T11:16:59;19.60;52.60
45435;DHT22;31183;47.404;8.500;2024-01-30T11:19:27;20.40;51.50
45435;DHT22;31183;47.404;8.500;2024-01-30T11:21:54;20.30;50.80
45435;DHT22;31183;47.404;8.500;2024-01-30T11:24:24;19.30;51.70
45435;DHT22;31183;47.404;8.500;2024-01-30T11:27:01;18.20;54.00
45435;DHT22;31183;47.404;8.500;2024-01-30T11:29:29;17.50;55.80
45435;DHT22;31183;47.404;8.500;2024-01-30T11:31:58;18.00;55.20
45435;DHT22;31183;47.404;8.500;2024-01-30T11:34:25;18.00;55.40
45435;DHT22;31183;47.404;8.500;2024-01-30T11:36:56;18.00;55.70
45435;DHT22;31183;47.404;8.500;2024-01-30T11:39:26;17.50;56.30
45435;DHT22;31183;47.404;8.500;2024-01-30T11:41:53;16.80;57.30
45435;DHT22;31183;47.404;8.500;2024-01-30T11:44:21;16.20;58.90
45435;DHT22;31183;47.404;8.500;2024-01-30T11:46:48;16.00;59.20
45435;DHT22;31183;47.404;8.500;2024-01-30T11:49:18;15.90;59.80
45435;DHT22;31183;47.404;8.500;2024-01-30T11:51:46;15.80;60.60
45435;DHT22;31183;47.404;8.500;2024-01-30T11:54:17;15.50;61.50
45435;DHT22;31183;47.404;8.500;2024-01-30T11:56:44;15.30;61.90
45435;DHT22;31183;47.404;8.500;2024-01-30T11:59:11;14.90;62.60
45435;DHT22;31183;47.404;8.500;2024-01-30T12:01:37;14.60;63.60
45435;DHT22;31183;47.404;8.500;2024-01-30T12:04:04;14.40;64.80
45435;DHT22;31183;47.404;8.500;2024-01-30T12:06:35;14.40;65.90
45435;DHT22;31183;47.404;8.500;2024-01-30T12:09:03;14.40;66.40
45435;DHT22;31183;47.404;8.500;2024-01-30T12:11:48;14.50;65.30
45435;DHT22;31183;47.404;8.500;2024-01-30T12:14:16;14.30;65.90
45435;DHT22;31183;47.404;8.500;2024-01-30T12:16:47;14.30;66.90
45435;DHT22;31183;47.404;8.500;2024-01-30T12:19:24;14.30;67.40
45435;DHT22;31183;47.404;8.500;2024-01-30T12:21:58;14.20;66.80
45435;DHT22;31183;47.404;8.500;2024-01-30T12:24:27;14.00;67.40
45435;DHT22;31183;47.404;8.500;2024-01-30T12:26:58;13.90;68.30
45435;DHT22;31183;47.404;8.500;2024-01-30T12:29:25;13.80;68.90
45435;DHT22;31183;47.404;8.500;2024-01-30T12:31:56;13.70;68.80
45435;DHT22;31183;47.404;8.500;2024-01-30T12:34:25;13.50;69.50
45435;DHT22;31183;47.404;8.500;2024-01-30T12:36:51;13.40;70.30
45435;DHT22;31183;47.404;8.500;2024-01-30T12:39:19;13.20;70.30
45435;DHT22;31183;47.404;8.500;2024-01-30T12:41:46;13.10;71.40
45435;DHT22;31183;47.404;8.500;2024-01-30T12:44:13;13.00;71.90
45435;DHT22;31183;47.404;8.500;2024-01-30T12:46:40;13.00;72.40
45435;DHT22;31183;47.404;8.500;2024-01-30T12:49:07;13.20;72.20
45435;DHT22;31183;47.404;8.500;2024-01-30T12:51:34;13.60;72.40
45435;DHT22;31183;47.404;8.500;2024-01-30T12:54:05;13.70;71.70
45435;DHT22;31183;47.404;8.500;2024-01-30T12:56:32;13.50;71.70
45435;DHT22;31183;47.404;8.500;2024-01-30T12:58:59;13.50;72.00
45435;DHT22;31183;47.404;8.500;2024-01-30T13:01:25;13.60;72.10
45435;DHT22;31183;47.404;8.500;2024-01-30T13:03:52;13.70;71.30
45435;DHT22;31183;47.404;8.500;2024-01-30T13:06:19;13.50;71.40
45435;DHT22;31183;47.404;8.500;2024-01-30T13:08:46;13.50;71.20
45435;DHT22;31183;47.404;8.500;2024-01-30T13:11:13;13.50;72.10
45435;DHT22;31183;47.404;8.500;2024-01-30T13:13:47;13.50;72.80
45435;DHT22;31183;47.404;8.500;2024-01-30T13:16:14;13.60;72.70
45435;DHT22;31183;47.404;8.500;2024-01-30T13:18:40;13.50;72.90
45435;DHT22;31183;47.404;8.500;2024-01-30T13:21:08;13.60;73.10
45435;DHT22;31183;47.404;8.500;2024-01-30T13:23:34;13.70;72.60
45435;DHT22;31183;47.404;8.500;2024-01-30T13:26:01;13.70;71.30
45435;DHT22;31183;47.404;8.500;2024-01-30T13:28:28;13.80;71.00
45435;DHT22;31183;47.404;8.500;2024-01-30T13:30:55;13.80;71.20
45435;DHT22;31183;47.404;8.500;2024-01-30T13:33:22;13.60;71.50
45435;DHT22;31183;47.404;8.500;2024-01-30T13:35:48;13.40;72.40
45435;DHT22;31183;47.404;8.500;2024-01-30T13:38:15;13.30;72.70
45435;DHT22;31183;47.404;8.500;2024-01-30T13:40:42;13.20;72.90
45435;DHT22;31183;47.404;8.500;2024-01-30T13:43:09;13.10;73.30
45435;DHT22;31183;47.404;8.500;2024-01-30T13:45:36;13.10;73.60
45435;DHT22;31183;47.404;8.500;2024-01-30T13:48:02;13.00;73.80
45435;DHT22;31183;47.404;8.500;2024-01-30T13:50:29;12.90;74.10
45435;DHT22;31183;47.404;8.500;2024-01-30T13:52:56;12.80;74.40
45435;DHT22;31183;47.404;8.500;2024-01-30T13:55:24;12.70;74.90
45435;DHT22;31183;47.404;8.500;2024-01-30T13:57:51;12.70;75.10
45435;DHT22;31183;47.404;8.500;2024-01-30T14:00:18;12.60;74.90
45435;DHT22;31183;47.404;8.500;2024-01-30T14:02:46;12.50;74.70
45435;DHT22;31183;47.404;8.500;2024-01-30T14:05:13;12.40;75.30
45435;DHT22;31183;47.404;8.500;2024-01-30T14:07:43;12.40;75.20
45435;DHT22;31183;47.404;8.500;2024-01-30T14:10:11;12.30;75.30
45435;DHT22;31183;47.404;8.500;2024-01-30T14:12:42;12.30;75.70
45435;DHT22;31183;47.404;8.500;2024-01-30T14:15:09;12.20;76.10
45435;DHT22;31183;47.404;8.500;2024-01-30T14:17:53;12.10;76.50
45435;DHT22;31183;47.404;8.500;2024-01-30T14:20:19;12.10;76.70
45435;DHT22;31183;47.404;8.500;2024-01-30T14:22:46;12.10;77.50
45435;DHT22;31183;47.404;8.500;2024-01-30T14:25:13;12.10;78.20
45435;DHT22;31183;47.404;8.500;2024-01-30T14:27:40;12.10;78.10
45435;DHT22;31183;47.404;8.500;2024-01-30T14:30:11;12.00;78.50
45435;DHT22;31183;47.404;8.500;2024-01-30T14:32:38;12.00;78.90
45435;DHT22;31183;47.404;8.500;2024-01-30T14:35:06;12.00;79.10
45435;DHT22;31183;47.404;8.500;2024-01-30T14:37:33;11.90;79.30
45435;DHT22;31183;47.404;8.500;2024-01-30T14:40:00;11.90;79.70
45435;DHT22;31183;47.404;8.500;2024-01-30T14:42:27;11.90;80.10
45435;DHT22;31183;47.404;8.500;2024-01-30T14:44:57;11.90;79.30
45435;DHT22;31183;47.404;8.500;2024-01-30T14:47:25;11.90;79.50
45435;DHT22;31183;47.404;8.500;2024-01-30T14:49:52;11.80;79.60
45435;DHT22;31183;47.404;8.500;2024-01-30T14:52:19;11.80;79.20
45435;DHT22;31183;47.404;8.500;2024-01-30T14:54:46;11.70;79.10
45435;DHT22;31183;47.404;8.500;2024-01-30T14:57:12;11.70;79.80
45435;DHT22;31183;47.404;8.500;2024-01-30T14:59:40;11.60;80.00
45435;DHT22;31183;47.404;8.500;2024-01-30T15:02:07;11.50;80.40
45435;DHT22;31183;47.404;8.500;2024-01-30T15:04:34;11.50;81.00
45435;DHT22;31183;47.404;8.500;2024-01-30T15:07:01;11.40;81.20
45435;DHT22;31183;47.404;8.500;2024-01-30T15:09:28;11.40;81.60
45435;DHT22;31183;47.404;8.500;2024-01-30T15:11:57;11.30;82.20
45435;DHT22;31183;47.404;8.500;2024-01-30T15:14:24;11.30;82.80
45435;DHT22;31183;47.404;8.500;2024-01-30T15:16:50;11.30;83.20
45435;DHT22;31183;47.404;8.500;2024-01-30T15:19:17;11.20;83.90
45435;DHT22;31183;47.404;8.500;2024-01-30T15:21:44;11.20;84.10
45435;DHT22;31183;47.404;8.500;2024-01-30T15:24:11;11.20;84.40
45435;DHT22;31183;47.404;8.500;2024-01-30T15:26:41;11.10;84.70
45435;DHT22;31183;47.404;8.500;2024-01-30T15:29:08;11.10;85.30
45435;DHT22;31183;47.404;8.500;2024-01-30T15:31:34;11.00;85.30
45435;DHT22;31183;47.404;8.500;2024-01-30T15:34:01;11.00;85.50
45435;DHT22;31183;47.404;8.500;2024-01-30T15:36:29;11.00;85.60
45435;DHT22;31183;47.404;8.500;2024-01-30T15:38:56;10.90;86.00
45435;DHT22;31183;47.404;8.500;2024-01-30T15:41:23;10.90;86.50
45435;DHT22;31183;47.404;8.500;2024-01-30T15:43:50;10.90;86.40